createdAt,value
2019-02-19T00:00:42.332Z,100.38
2019-02-19T00:03:37.433Z,100.80
2019-02-19T00:06:32.004Z,103.70
2019-02-19T00:09:26.264Z,102.85
2019-02-19T00:12:21.128Z,104.07
2019-02-19T00:15:15.872Z,98.00
2019-02-19T00:18:10.682Z,99.75
2019-02-19T00:21:05.331Z,99.52
2019-02-19T00:24:00.202Z,100.60
2019-02-19T00:26:54.951Z,99.95
2019-02-19T00:29:49.787Z,94.28
2019-02-19T00:32:44.786Z,93.15
2019-02-19T00:35:39.452Z,88.42
2019-02-19T00:38:34.459Z,88.65
2019-02-19T00:41:29.070Z,85.95
2019-02-19T00:44:23.978Z,80.22
2019-02-19T00:47:18.779Z,78.87
2019-02-19T00:50:14.032Z,73.47
2019-02-19T00:53:09.003Z,72.25
2019-02-19T00:56:03.832Z,66.97
2019-02-19T00:58:58.540Z,65.30
2019-02-19T01:01:53.143Z,62.25
2019-02-19T01:04:48.266Z,62.27
2019-02-19T01:07:43.276Z,61.80
2019-02-19T01:10:38.131Z,60.25
2019-02-19T01:13:32.874Z,60.08
2019-02-19T01:16:28.420Z,55.17
2019-02-19T01:19:23.220Z,52.05
2019-02-19T01:22:17.902Z,49.75
2019-02-19T01:25:13.104Z,47.33
2019-02-19T01:28:07.741Z,45.85
2019-02-19T01:31:03.051Z,46.40
2019-02-19T01:33:58.410Z,44.55
2019-02-19T01:36:53.955Z,44.30
2019-02-19T01:39:48.803Z,41.80
2019-02-19T01:42:43.753Z,39.53
2019-02-19T01:45:38.635Z,41.50
2019-02-19T01:48:34.080Z,43.28
2019-02-19T01:51:29.082Z,45.08
2019-02-19T01:54:24.191Z,46.75
2019-02-19T01:57:19.157Z,46.28
2019-02-19T02:00:15.827Z,47.27
2019-02-19T02:03:10.424Z,46.98
2019-02-19T02:06:05.370Z,44.65
2019-02-19T02:09:00.291Z,43.42
2019-02-19T02:11:54.995Z,43.98
2019-02-19T02:14:49.991Z,43.65
2019-02-19T02:17:45.522Z,44.15
2019-02-19T02:20:40.905Z,45.08
2019-02-19T02:23:36.332Z,45.45
2019-02-19T02:26:31.426Z,45.20
2019-02-19T02:29:26.410Z,46.45
2019-02-19T02:32:21.340Z,47.98
2019-02-19T02:35:18.347Z,45.75
2019-02-19T02:38:13.159Z,43.30
2019-02-19T02:41:08.633Z,41.80
2019-02-19T02:44:06.980Z,42.35
2019-02-19T02:47:01.553Z,42.58
2019-02-19T02:49:56.356Z,43.63
2019-02-19T02:52:51.241Z,44.30
2019-02-19T02:55:46.221Z,43.28
2019-02-19T02:58:41.168Z,43.28
2019-02-19T03:01:37.433Z,41.70
2019-02-19T03:04:31.892Z,43.50
2019-02-19T03:07:37.334Z,41.50
2019-02-19T03:10:31.980Z,42.25
2019-02-19T03:13:27.024Z,42.62
2019-02-19T03:16:21.835Z,44.08
2019-02-19T03:19:16.535Z,43.45
2019-02-19T03:22:11.727Z,43.78
2019-02-19T03:25:06.700Z,43.10
2019-02-19T03:28:02.275Z,41.42
2019-02-19T03:30:57.427Z,43.30
2019-02-19T03:33:53.551Z,44.00
2019-02-19T03:36:48.698Z,45.15
2019-02-19T03:39:43.615Z,53.50
2019-02-19T03:42:39.620Z,46.73
2019-02-19T03:45:35.561Z,47.55
2019-02-19T03:48:30.537Z,46.35
2019-02-19T03:51:25.620Z,44.35
2019-02-19T03:54:22.792Z,50.78
2019-02-19T03:57:17.704Z,41.65
2019-02-19T04:00:12.837Z,39.80
2019-02-19T04:03:08.641Z,39.10
2019-02-19T04:06:03.950Z,41.58
2019-02-19T04:08:58.853Z,43.23
2019-02-19T04:11:55.980Z,39.53
2019-02-19T04:14:50.872Z,38.48
2019-02-19T04:17:45.617Z,37.85
2019-02-19T04:20:44.072Z,37.17
2019-02-19T04:23:38.873Z,35.68
2019-02-19T04:26:33.352Z,34.40
2019-02-19T04:29:28.277Z,34.33
2019-02-19T04:32:23.828Z,33.05
2019-02-19T04:35:19.015Z,32.70
2019-02-19T04:38:13.474Z,29.67
2019-02-19T04:41:08.313Z,29.92
2019-02-19T04:44:03.082Z,29.23
2019-02-19T04:46:57.800Z,30.00
2019-02-19T04:49:52.508Z,29.07
2019-02-19T04:52:47.694Z,29.32
2019-02-19T04:55:42.679Z,26.77
2019-02-19T04:58:37.979Z,27.32
2019-02-19T05:01:33.440Z,26.73
2019-02-19T05:04:39.897Z,26.37
2019-02-19T05:07:52.841Z,25.72
2019-02-19T05:10:49.251Z,26.10
2019-02-19T05:13:44.876Z,29.48
2019-02-19T05:16:41.292Z,25.95
2019-02-19T05:19:36.031Z,26.93
2019-02-19T05:22:31.405Z,30.90
2019-02-19T05:25:29.188Z,22.87
2019-02-19T05:28:24.971Z,28.60
2019-02-19T05:31:20.513Z,25.15
2019-02-19T05:34:17.082Z,28.23
2019-02-19T05:37:13.119Z,21.60
2019-02-19T05:40:20.197Z,20.45
2019-02-19T05:44:03.060Z,20.02
2019-02-19T05:46:58.707Z,25.70
2019-02-19T05:49:53.861Z,22.73
2019-02-19T05:52:51.535Z,23.87
2019-02-19T05:55:52.526Z,23.52
2019-02-19T05:58:47.851Z,24.30
2019-02-19T06:01:43.277Z,23.02
2019-02-19T06:04:50.673Z,24.35
2019-02-19T06:07:45.923Z,24.02
2019-02-19T06:10:40.774Z,21.85
2019-02-19T06:13:38.964Z,23.35
2019-02-19T06:16:35.928Z,22.15
2019-02-19T06:19:32.177Z,23.95
2019-02-19T06:22:34.591Z,23.18
2019-02-19T06:25:29.773Z,22.55
2019-02-19T06:28:24.915Z,22.30
2019-02-19T06:31:20.317Z,21.37
2019-02-19T06:34:15.487Z,22.52
2019-02-19T06:37:11.157Z,19.87
2019-02-19T06:40:06.177Z,19.62
2019-02-19T06:43:03.517Z,20.92
2019-02-19T06:45:58.461Z,21.10
2019-02-19T06:48:53.231Z,20.77
2019-02-19T06:51:52.088Z,20.65
2019-02-19T06:54:45.939Z,20.45
2019-02-19T06:57:41.066Z,20.65
2019-02-19T07:00:35.684Z,22.60
2019-02-19T07:03:38.294Z,23.47
2019-02-19T07:06:33.603Z,21.62
2019-02-19T07:09:28.635Z,24.05
2019-02-19T07:12:23.335Z,23.15
2019-02-19T07:15:19.769Z,23.32
2019-02-19T07:18:15.399Z,21.15
2019-02-19T07:21:10.841Z,21.25
2019-02-19T07:24:55.107Z,23.90
2019-02-19T07:27:53.539Z,19.25
2019-02-19T07:30:50.504Z,21.35
2019-02-19T07:33:45.746Z,19.57
2019-02-19T07:36:41.778Z,21.33
2019-02-19T07:39:41.589Z,20.05
2019-02-19T07:42:44.026Z,20.12
2019-02-19T07:45:39.597Z,20.12
2019-02-19T07:48:34.790Z,20.70
2019-02-19T07:51:29.622Z,19.65
2019-02-19T07:54:30.460Z,18.82
2019-02-19T07:57:26.474Z,18.40
2019-02-19T08:00:22.474Z,16.45
2019-02-19T08:03:17.878Z,12.18
2019-02-19T08:06:13.262Z,11.68
2019-02-19T08:09:41.525Z,13.75
2019-02-19T08:12:37.054Z,11.55
2019-02-19T08:15:44.590Z,11.50
2019-02-19T08:18:40.527Z,10.20
2019-02-19T08:21:35.564Z,12.37
2019-02-19T08:24:30.739Z,12.50
2019-02-19T08:27:28.171Z,12.05
2019-02-19T08:30:23.577Z,12.15
2019-02-19T08:33:19.204Z,12.78
2019-02-19T08:36:14.003Z,11.60
2019-02-19T08:39:13.280Z,10.05
2019-02-19T08:42:10.117Z,10.68
2019-02-19T08:45:06.239Z,9.20
2019-02-19T08:48:07.365Z,9.53
2019-02-19T08:51:04.706Z,9.13
2019-02-19T08:54:01.392Z,9.05
2019-02-19T08:57:02.405Z,11.12
2019-02-19T09:00:00.545Z,11.20
2019-02-19T09:02:57.640Z,10.90
2019-02-19T09:05:52.913Z,10.75
2019-02-19T09:08:57.177Z,10.28
2019-02-19T09:11:56.894Z,10.20
2019-02-19T09:14:53.636Z,10.28
2019-02-19T09:17:51.902Z,10.03
2019-02-19T09:20:44.908Z,10.53
2019-02-19T09:23:42.252Z,10.10
2019-02-19T09:26:39.979Z,10.25
2019-02-19T09:29:36.060Z,10.50
2019-02-19T09:32:31.798Z,10.82
2019-02-19T09:35:29.099Z,13.25
2019-02-19T09:38:25.957Z,11.43
2019-02-19T09:41:22.269Z,13.10
2019-02-19T09:44:21.516Z,12.60
2019-02-19T09:47:17.720Z,14.00
2019-02-19T09:50:14.537Z,12.85
2019-02-19T09:53:11.493Z,13.18
2019-02-19T09:56:14.135Z,12.70
2019-02-19T09:59:11.197Z,15.00
2019-02-19T10:02:09.730Z,11.28
2019-02-19T10:05:06.256Z,12.00
2019-02-19T10:08:02.543Z,12.23
2019-02-19T10:10:58.357Z,12.33
2019-02-19T10:14:00.092Z,12.23
2019-02-19T10:16:57.312Z,11.90
2019-02-19T10:19:54.669Z,12.37
2019-02-19T10:22:51.369Z,13.10
2019-02-19T10:25:47.550Z,13.58
2019-02-19T10:28:44.360Z,13.83
2019-02-19T10:31:40.120Z,15.48
2019-02-19T10:34:35.418Z,14.50
2019-02-19T10:37:30.713Z,13.90
2019-02-19T10:40:29.411Z,13.45
2019-02-19T10:43:25.030Z,14.00
2019-02-19T10:46:27.620Z,13.78
2019-02-19T10:49:24.814Z,12.53
2019-02-19T10:52:19.992Z,13.43
2019-02-19T10:55:15.852Z,13.68
2019-02-19T10:58:11.611Z,13.72
2019-02-19T11:01:11.232Z,14.90
2019-02-19T11:04:11.826Z,14.53
2019-02-19T11:07:07.415Z,15.05
2019-02-19T11:10:03.529Z,13.28
2019-02-19T11:12:59.020Z,13.35
2019-02-19T11:15:54.488Z,13.83
2019-02-19T11:18:51.090Z,14.33
2019-02-19T11:21:50.579Z,13.72
2019-02-19T11:24:47.721Z,15.18
2019-02-19T11:27:42.652Z,23.27
2019-02-19T11:30:42.372Z,15.23
2019-02-19T11:33:40.604Z,15.28
2019-02-19T11:36:38.804Z,14.58
2019-02-19T11:39:37.871Z,14.35
2019-02-19T11:42:33.524Z,15.70
2019-02-19T11:45:28.620Z,17.32
2019-02-19T11:48:26.145Z,19.52
2019-02-19T11:51:22.248Z,16.20
2019-02-19T11:54:17.924Z,18.45
2019-02-19T11:57:14.197Z,16.12
2019-02-19T12:00:10.583Z,16.10
2019-02-19T12:03:09.389Z,13.85
2019-02-19T12:06:07.622Z,16.05
2019-02-19T12:09:42.891Z,16.87
2019-02-19T12:16:53.033Z,17.00
2019-02-19T12:20:11.706Z,19.52
2019-02-19T12:23:15.913Z,22.82
2019-02-19T12:26:23.908Z,19.27
2019-02-19T12:29:19.939Z,17.40
2019-02-19T12:32:18.071Z,18.82
2019-02-19T12:35:14.370Z,22.27
2019-02-19T12:38:10.616Z,23.73
2019-02-19T12:41:07.332Z,25.88
2019-02-19T12:44:06.755Z,38.53
2019-02-19T12:47:08.163Z,32.17
2019-02-19T12:50:07.926Z,34.88
2019-02-19T12:53:07.940Z,35.10
2019-02-19T12:56:03.325Z,31.35
2019-02-19T12:59:18.056Z,31.25
2019-02-19T13:06:04.343Z,36.75
2019-02-19T13:08:59.084Z,83.92
2019-02-19T13:11:54.255Z,297.93
2019-02-19T13:14:58.850Z,192.00
2019-02-19T13:17:53.855Z,80.35
2019-02-19T13:20:50.012Z,43.15
2019-02-19T13:23:47.431Z,32.50
2019-02-19T13:26:42.866Z,35.40
2019-02-19T13:29:39.976Z,50.52
2019-02-19T13:32:35.706Z,50.90
2019-02-19T13:35:30.539Z,50.85
2019-02-19T13:38:27.294Z,52.58
2019-02-19T13:41:22.949Z,54.63
2019-02-19T13:44:17.671Z,52.45
2019-02-19T13:47:15.998Z,52.48
2019-02-19T13:50:12.982Z,54.83
2019-02-19T13:53:18.483Z,51.70
2019-02-19T13:56:13.401Z,52.62
2019-02-19T13:59:09.450Z,43.28
2019-02-19T14:02:05.004Z,39.98
2019-02-19T14:05:00.625Z,34.63
2019-02-19T14:07:55.707Z,41.02
2019-02-19T14:10:50.795Z,48.45
2019-02-19T14:13:51.912Z,41.83
2019-02-19T14:16:52.166Z,49.30
2019-02-19T14:19:55.322Z,52.67
2019-02-19T14:23:15.060Z,43.78
2019-02-19T14:26:33.754Z,33.55
2019-02-19T14:29:51.126Z,43.83
2019-02-19T14:33:09.663Z,53.78
2019-02-19T14:36:30.613Z,50.45
2019-02-19T14:39:58.768Z,46.00
2019-02-19T14:43:17.411Z,50.33
2019-02-19T14:46:33.122Z,57.10
2019-02-19T14:49:47.631Z,54.65
2019-02-19T14:52:59.016Z,52.30
2019-02-19T14:56:20.315Z,60.78
2019-02-19T14:59:34.735Z,60.23
2019-02-19T15:02:50.379Z,55.67
2019-02-19T15:06:19.254Z,53.28
2019-02-19T15:09:51.537Z,51.73
2019-02-19T15:13:04.644Z,52.58
2019-02-19T15:16:09.262Z,55.80
2019-02-19T15:19:18.376Z,66.62
2019-02-19T15:22:26.207Z,68.57
2019-02-19T15:25:48.135Z,73.60
2019-02-19T15:28:59.239Z,80.30
2019-02-19T15:32:11.926Z,86.82
2019-02-19T15:35:24.953Z,90.80
2019-02-19T15:38:43.523Z,90.83
2019-02-19T15:42:09.339Z,95.07
2019-02-19T15:45:16.617Z,88.95
2019-02-19T15:48:44.218Z,82.78
2019-02-19T15:52:16.765Z,75.80
2019-02-19T15:55:31.508Z,64.22
2019-02-19T15:58:54.299Z,82.05
2019-02-19T16:02:27.821Z,76.17
2019-02-19T16:05:46.930Z,79.75
2019-02-19T16:08:48.926Z,89.85
2019-02-19T16:11:49.636Z,75.83
2019-02-19T16:14:59.217Z,70.47
2019-02-19T16:18:15.432Z,72.72
2019-02-19T16:21:38.819Z,57.25
2019-02-19T16:24:52.751Z,61.55
2019-02-19T16:28:07.410Z,55.60
2019-02-19T16:31:11.458Z,53.25
2019-02-19T16:34:30.527Z,52.73
2019-02-19T16:37:34.484Z,46.02
2019-02-19T16:40:38.215Z,45.50
2019-02-19T16:43:50.902Z,41.75
2019-02-19T16:47:06.551Z,41.65
2019-02-19T16:50:09.197Z,40.63
2019-02-19T16:53:21.216Z,43.08
2019-02-19T16:56:32.325Z,41.48
2019-02-19T16:59:45.813Z,38.78
2019-02-19T17:03:15.479Z,38.95
2019-02-19T17:06:30.304Z,39.23
2019-02-19T17:09:43.018Z,41.73
2019-02-19T17:12:58.329Z,42.40
2019-02-19T17:16:15.412Z,43.05
2019-02-19T17:19:29.356Z,36.98
2019-02-19T17:22:45.238Z,35.28
2019-02-19T17:26:14.157Z,39.10
2019-02-19T17:29:30.700Z,36.80
2019-02-19T17:32:40.750Z,36.25
2019-02-19T17:35:46.772Z,35.88
2019-02-19T17:39:00.107Z,37.13
2019-02-19T17:42:18.463Z,36.60
2019-02-19T17:45:29.995Z,37.08
2019-02-19T17:48:41.331Z,36.20
2019-02-19T17:51:56.113Z,34.18
2019-02-19T17:55:01.345Z,34.45
2019-02-19T17:58:26.240Z,32.58
2019-02-19T18:01:52.373Z,32.25
2019-02-19T18:05:11.655Z,28.55
2019-02-19T18:08:21.083Z,27.93
2019-02-19T18:11:52.966Z,26.15
2019-02-19T18:15:09.692Z,25.82
2019-02-19T18:18:23.105Z,25.85
2019-02-19T18:21:18.692Z,24.25
2019-02-19T18:24:14.520Z,24.07
2019-02-19T18:27:10.538Z,24.60
2019-02-19T18:30:06.301Z,23.65
2019-02-19T18:33:02.452Z,24.40
2019-02-19T18:35:58.335Z,22.58
2019-02-19T18:38:53.915Z,22.50
2019-02-19T18:41:49.863Z,21.57
2019-02-19T18:44:45.769Z,20.27
2019-02-19T18:47:41.598Z,19.37
2019-02-19T18:50:37.122Z,18.65
2019-02-19T18:53:32.919Z,18.10
2019-02-19T18:56:28.921Z,17.82
2019-02-19T18:59:24.773Z,17.15
2019-02-19T19:02:21.079Z,16.77
2019-02-19T19:05:17.163Z,15.58
2019-02-19T19:08:13.750Z,15.50
2019-02-19T19:11:09.334Z,15.10
2019-02-19T19:14:05.632Z,14.68
2019-02-19T19:17:01.050Z,13.75
2019-02-19T19:19:56.837Z,14.53
2019-02-19T19:22:52.685Z,14.00
2019-02-19T19:25:48.751Z,14.20
2019-02-19T19:28:44.735Z,14.40
2019-02-19T19:31:41.223Z,14.15
2019-02-19T19:34:36.493Z,14.83
2019-02-19T19:37:31.540Z,14.93
2019-02-19T19:40:26.275Z,14.68
2019-02-19T19:43:21.064Z,14.98
2019-02-19T19:46:15.502Z,15.00
2019-02-19T19:49:10.175Z,14.60
2019-02-19T19:52:05.083Z,14.85
2019-02-19T19:55:00.009Z,14.45
2019-02-19T19:57:54.544Z,14.95
2019-02-19T20:00:52.579Z,15.13
2019-02-19T20:03:47.545Z,15.38
2019-02-19T20:06:42.104Z,14.53
2019-02-19T20:09:37.083Z,15.28
2019-02-19T20:12:31.807Z,15.63
2019-02-19T20:15:26.488Z,14.87
2019-02-19T20:18:21.198Z,14.50
2019-02-19T20:21:16.277Z,16.05
2019-02-19T20:24:11.805Z,15.88
2019-02-19T20:27:06.342Z,16.85
2019-02-19T20:30:01.205Z,16.73
2019-02-19T20:32:56.122Z,17.95
2019-02-19T20:35:50.809Z,18.17
2019-02-19T20:38:45.899Z,21.10
2019-02-19T20:41:40.822Z,22.02
2019-02-19T20:44:35.587Z,21.68
2019-02-19T20:47:32.640Z,20.25
2019-02-19T20:50:27.344Z,20.97
2019-02-19T20:53:22.218Z,20.60
2019-02-19T20:56:16.806Z,20.35
2019-02-19T20:59:11.530Z,20.62
2019-02-19T21:02:06.682Z,21.65
2019-02-19T21:05:01.421Z,23.73
2019-02-19T21:07:56.672Z,21.60
2019-02-19T21:10:51.402Z,20.27
2019-02-19T21:13:46.117Z,21.02
2019-02-19T21:16:42.141Z,21.02
2019-02-19T21:19:37.210Z,24.80
2019-02-19T21:22:31.882Z,26.45
2019-02-19T21:25:30.964Z,26.60
2019-02-19T21:28:23.183Z,25.92
2019-02-19T21:31:18.267Z,26.33
2019-02-19T21:34:13.032Z,26.80
2019-02-19T21:37:07.712Z,29.57
2019-02-19T21:40:02.246Z,30.45
2019-02-19T21:42:57.712Z,37.83
2019-02-19T21:45:52.924Z,40.38
2019-02-19T21:48:49.308Z,41.45
2019-02-19T21:51:44.153Z,39.92
2019-02-19T21:54:38.872Z,44.77
2019-02-19T21:57:33.903Z,42.25
2019-02-19T22:00:28.971Z,48.00
2019-02-19T22:03:23.784Z,53.17
2019-02-19T22:06:18.671Z,56.35
2019-02-19T22:09:13.721Z,55.10
2019-02-19T22:12:09.264Z,60.30
2019-02-19T22:15:04.510Z,61.63
2019-02-19T22:17:59.125Z,63.17
2019-02-19T22:21:05.214Z,64.90
2019-02-19T22:24:00.281Z,64.47
2019-02-19T22:26:55.059Z,64.55
2019-02-19T22:29:49.917Z,65.00
2019-02-19T22:32:44.833Z,64.05
2019-02-19T22:35:39.743Z,62.53
2019-02-19T22:38:35.205Z,66.40
2019-02-19T22:41:29.778Z,65.60
2019-02-19T22:44:24.313Z,66.77
2019-02-19T22:47:19.917Z,69.25
2019-02-19T22:50:14.592Z,68.25
2019-02-19T22:53:26.890Z,73.87
2019-02-19T22:56:25.404Z,76.87
2019-02-19T22:59:20.327Z,78.07
2019-02-19T23:02:20.811Z,76.42
2019-02-19T23:05:17.363Z,76.00
2019-02-19T23:08:12.505Z,74.82
2019-02-19T23:11:08.393Z,72.22
2019-02-19T23:14:05.043Z,71.62
2019-02-19T23:17:00.104Z,73.35
2019-02-19T23:19:55.217Z,73.72
2019-02-19T23:22:54.081Z,73.42
2019-02-19T23:25:49.181Z,73.62
2019-02-19T23:28:46.567Z,73.33
2019-02-19T23:31:41.563Z,71.95
2019-02-19T23:34:38.075Z,74.62
2019-02-19T23:37:33.435Z,80.10
2019-02-19T23:40:28.892Z,81.78
2019-02-19T23:43:23.979Z,99.25
2019-02-19T23:46:19.627Z,91.65
2019-02-19T23:49:14.730Z,85.77
2019-02-19T23:52:10.767Z,81.15
2019-02-19T23:55:05.598Z,80.20
2019-02-19T23:58:01.945Z,81.05
